createdAt,value
2017-07-07T00:00:12.165Z,19.5
2017-07-07T00:00:32.455Z,19.6
2017-07-07T00:00:52.729Z,19.5
2017-07-07T00:01:13.024Z,19.5
2017-07-07T00:01:33.278Z,19.5
2017-07-07T00:01:53.590Z,19.5
2017-07-07T00:02:13.882Z,19.5
2017-07-07T00:02:34.164Z,19.6
2017-07-07T00:02:54.478Z,19.5
2017-07-07T00:03:14.740Z,19.6
2017-07-07T00:03:35.104Z,19.6
2017-07-07T00:03:55.362Z,19.6
2017-07-07T00:04:15.643Z,19.6
2017-07-07T00:04:35.952Z,19.5
2017-07-07T00:04:56.260Z,19.5
2017-07-07T00:05:16.604Z,19.6
2017-07-07T00:05:36.886Z,19.5
2017-07-07T00:05:57.162Z,19.5
2017-07-07T00:06:17.463Z,19.6
2017-07-07T00:06:37.830Z,19.5
2017-07-07T00:06:58.199Z,19.6
2017-07-07T00:07:18.653Z,19.5
2017-07-07T00:07:39.121Z,19.6
2017-07-07T00:07:59.742Z,19.6
2017-07-07T00:08:20.228Z,19.6
2017-07-07T00:08:40.840Z,19.6
2017-07-07T00:09:02.280Z,19.6
2017-07-07T00:09:22.573Z,19.6
2017-07-07T00:09:42.935Z,19.6
2017-07-07T00:10:03.456Z,19.7
2017-07-07T00:10:23.825Z,19.6
2017-07-07T00:10:44.185Z,19.6
2017-07-07T00:11:04.651Z,19.6
2017-07-07T00:11:25.757Z,19.7
2017-07-07T00:11:46.031Z,19.6
2017-07-07T00:12:06.323Z,19.6
2017-07-07T00:12:26.601Z,19.6
2017-07-07T00:12:46.911Z,19.6
2017-07-07T00:13:07.186Z,19.6
2017-07-07T00:13:27.509Z,19.7
2017-07-07T00:13:47.796Z,19.7
2017-07-07T00:14:08.166Z,19.8
2017-07-07T00:14:28.465Z,19.8
2017-07-07T00:14:48.767Z,19.8
2017-07-07T00:15:09.768Z,19.8
2017-07-07T00:15:30.085Z,19.7
2017-07-07T00:15:50.371Z,19.7
2017-07-07T00:16:10.643Z,19.7
2017-07-07T00:16:30.916Z,19.8
2017-07-07T00:16:51.256Z,19.7
2017-07-07T00:17:11.563Z,19.7
2017-07-07T00:17:31.970Z,19.7
2017-07-07T00:17:52.208Z,19.7
2017-07-07T00:18:12.476Z,19.6
2017-07-07T00:18:32.750Z,19.6
2017-07-07T00:18:53.030Z,19.8
2017-07-07T00:19:13.307Z,19.6
2017-07-07T00:19:33.572Z,19.6
2017-07-07T00:19:53.880Z,19.7
2017-07-07T00:20:14.156Z,19.7
2017-07-07T00:20:34.483Z,19.7
2017-07-07T00:20:54.813Z,19.6
2017-07-07T00:21:15.097Z,19.7
2017-07-07T00:21:35.373Z,19.6
2017-07-07T00:21:55.643Z,19.7
2017-07-07T00:22:15.906Z,19.6
2017-07-07T00:22:36.176Z,19.7
2017-07-07T00:22:56.478Z,19.7
2017-07-07T00:23:16.847Z,19.7
2017-07-07T00:23:37.110Z,19.7
2017-07-07T00:23:57.423Z,19.7
2017-07-07T00:24:17.697Z,19.8
2017-07-07T00:24:37.960Z,19.7
2017-07-07T00:24:58.291Z,19.7
2017-07-07T00:25:18.615Z,19.7
2017-07-07T00:25:38.957Z,19.8
2017-07-07T00:25:59.274Z,19.7
2017-07-07T00:26:19.594Z,19.8
2017-07-07T00:26:39.852Z,19.8
2017-07-07T00:27:00.121Z,19.8
2017-07-07T00:27:20.395Z,19.8
2017-07-07T00:27:40.747Z,19.7
2017-07-07T00:28:01.042Z,19.8
2017-07-07T00:28:21.359Z,19.7
2017-07-07T00:28:41.625Z,19.8
2017-07-07T00:29:01.891Z,19.8
2017-07-07T00:29:22.245Z,19.8
2017-07-07T00:29:42.562Z,19.8
2017-07-07T00:30:02.892Z,19.8
2017-07-07T00:30:23.161Z,19.8
2017-07-07T00:30:43.445Z,19.8
2017-07-07T00:31:03.792Z,19.8
2017-07-07T00:31:24.074Z,19.9
2017-07-07T00:31:44.407Z,19.8
2017-07-07T00:32:04.686Z,19.8
2017-07-07T00:32:24.968Z,19.8
2017-07-07T00:32:45.344Z,19.8
2017-07-07T00:33:05.602Z,19.9
2017-07-07T00:33:25.881Z,19.8
2017-07-07T00:33:46.149Z,19.9
2017-07-07T00:34:06.422Z,19.9
2017-07-07T00:34:26.704Z,19.8
2017-07-07T00:34:46.989Z,19.8
2017-07-07T00:35:07.280Z,19.8
2017-07-07T00:35:27.569Z,19.9
2017-07-07T00:35:47.850Z,19.9
2017-07-07T00:36:08.130Z,19.9
2017-07-07T00:36:28.409Z,19.9
2017-07-07T00:36:48.700Z,19.8
2017-07-07T00:37:08.964Z,19.9
2017-07-07T00:37:29.228Z,19.9
2017-07-07T00:37:49.504Z,19.8
2017-07-07T00:38:09.816Z,19.9
2017-07-07T00:38:30.082Z,19.9
2017-07-07T00:38:50.365Z,19.9
2017-07-07T00:39:10.639Z,19.9
2017-07-07T00:39:30.981Z,19.9
2017-07-07T00:39:51.264Z,19.9
2017-07-07T00:40:11.541Z,20
2017-07-07T00:40:31.822Z,20
2017-07-07T00:40:52.100Z,19.9
2017-07-07T00:41:12.381Z,19.9
2017-07-07T00:41:32.664Z,19.9
2017-07-07T00:41:52.995Z,19.9
2017-07-07T00:42:13.322Z,20
2017-07-07T00:42:33.633Z,20
2017-07-07T00:42:53.929Z,20
2017-07-07T00:43:14.209Z,20
2017-07-07T00:43:34.486Z,20
2017-07-07T00:43:54.751Z,19.9
2017-07-07T00:44:15.045Z,20
2017-07-07T00:44:35.372Z,20
2017-07-07T00:44:55.641Z,20
2017-07-07T00:45:15.915Z,20
2017-07-07T00:45:36.182Z,19.9
2017-07-07T00:45:56.528Z,19.9
2017-07-07T00:46:16.800Z,19.9
2017-07-07T00:46:37.073Z,19.9
2017-07-07T00:46:57.395Z,19.9
2017-07-07T00:47:17.689Z,19.9
2017-07-07T00:47:37.948Z,19.9
2017-07-07T00:47:58.204Z,19.9
2017-07-07T00:48:18.575Z,20
2017-07-07T00:48:38.850Z,19.9
2017-07-07T00:48:59.117Z,19.9
2017-07-07T00:49:19.393Z,19.9
2017-07-07T00:49:39.653Z,19.9
2017-07-07T00:49:59.913Z,19.8
2017-07-07T00:50:20.212Z,19.9
2017-07-07T00:50:40.482Z,19.8
2017-07-07T00:51:00.790Z,19.8
2017-07-07T00:51:21.045Z,19.8
2017-07-07T00:51:41.305Z,19.8
2017-07-07T00:52:01.570Z,19.8
2017-07-07T00:52:21.840Z,19.8
2017-07-07T00:52:42.105Z,19.8
2017-07-07T00:53:02.416Z,19.8
2017-07-07T00:53:22.736Z,19.8
2017-07-07T00:53:42.990Z,19.7
2017-07-07T00:54:03.262Z,19.8
2017-07-07T00:54:23.514Z,19.8
2017-07-07T00:54:43.822Z,19.7
2017-07-07T00:55:04.087Z,19.8
2017-07-07T00:55:24.432Z,19.8
2017-07-07T00:55:44.698Z,19.7
2017-07-07T00:56:04.959Z,19.8
2017-07-07T00:56:25.225Z,19.8
2017-07-07T00:56:45.559Z,19.8
2017-07-07T00:57:05.946Z,19.9
2017-07-07T00:57:26.217Z,19.8
2017-07-07T00:57:46.530Z,19.8
2017-07-07T00:58:06.873Z,19.8
2017-07-07T00:58:27.179Z,19.8
2017-07-07T00:58:47.435Z,19.8
2017-07-07T00:59:07.710Z,19.8
2017-07-07T00:59:27.967Z,19.9
2017-07-07T00:59:48.231Z,19.7
2017-07-07T01:00:08.503Z,19.8
2017-07-07T01:00:28.758Z,19.8
2017-07-07T01:00:49.071Z,19.9
2017-07-07T01:01:09.421Z,19.9
2017-07-07T01:01:29.744Z,19.9
2017-07-07T01:01:50.790Z,19.9
2017-07-07T01:02:11.051Z,19.8
2017-07-07T01:02:31.396Z,19.9
2017-07-07T01:02:51.666Z,19.8
2017-07-07T01:03:11.943Z,19.8
2017-07-07T01:03:32.193Z,19.8
2017-07-07T01:03:52.464Z,19.8
2017-07-07T01:04:12.783Z,19.8
2017-07-07T01:04:33.073Z,19.8
2017-07-07T01:04:53.356Z,19.7
2017-07-07T01:05:13.674Z,19.8
2017-07-07T01:05:33.949Z,19.8
2017-07-07T01:05:54.221Z,19.7
2017-07-07T01:06:14.491Z,19.8
2017-07-07T01:06:34.799Z,19.7
2017-07-07T01:06:55.069Z,19.8
2017-07-07T01:07:15.332Z,19.8
2017-07-07T01:07:35.602Z,19.8
2017-07-07T01:07:55.853Z,19.8
2017-07-07T01:08:16.343Z,19.8
2017-07-07T01:08:36.612Z,19.7
2017-07-07T01:08:56.932Z,19.7
2017-07-07T01:09:17.209Z,19.7
2017-07-07T01:09:37.480Z,19.7
2017-07-07T01:09:57.748Z,19.8
2017-07-07T01:10:18.107Z,19.8
2017-07-07T01:10:38.373Z,19.8
2017-07-07T01:10:58.679Z,19.8
2017-07-07T01:11:19.021Z,19.8
2017-07-07T01:11:39.418Z,19.8
2017-07-07T01:11:59.741Z,19.8
2017-07-07T01:12:19.998Z,19.9
2017-07-07T01:12:40.316Z,19.8
2017-07-07T01:13:00.595Z,19.8
2017-07-07T01:13:20.864Z,19.8
2017-07-07T01:13:41.135Z,19.8
2017-07-07T01:14:01.453Z,19.8
2017-07-07T01:14:21.715Z,19.9
2017-07-07T01:14:41.994Z,19.8
2017-07-07T01:15:02.249Z,19.8
2017-07-07T01:15:22.575Z,19.8
2017-07-07T01:15:42.883Z,19.8
2017-07-07T01:16:03.210Z,19.8
2017-07-07T01:16:23.486Z,19.8
2017-07-07T01:16:44.015Z,19.8
2017-07-07T01:17:04.285Z,19.8
2017-07-07T01:17:24.580Z,19.8
2017-07-07T01:17:44.915Z,19.7
2017-07-07T01:18:05.245Z,19.7
2017-07-07T01:18:25.554Z,19.7
2017-07-07T01:18:45.802Z,19.7
2017-07-07T01:19:06.111Z,19.7
2017-07-07T01:19:26.390Z,19.7
2017-07-07T01:19:46.661Z,19.7
2017-07-07T01:20:06.953Z,19.8
2017-07-07T01:20:27.263Z,19.8
2017-07-07T01:20:47.649Z,19.8
2017-07-07T01:21:07.961Z,19.6
2017-07-07T01:21:28.228Z,19.8
2017-07-07T01:21:48.570Z,19.7
2017-07-07T01:22:08.909Z,19.8
2017-07-07T01:22:29.216Z,19.7
2017-07-07T01:22:49.490Z,19.7
2017-07-07T01:23:09.824Z,19.7
2017-07-07T01:23:30.091Z,19.8
2017-07-07T01:23:50.352Z,19.6
2017-07-07T01:24:10.668Z,19.6
2017-07-07T01:24:30.975Z,19.7
2017-07-07T01:24:51.223Z,19.8
2017-07-07T01:25:11.540Z,19.8
2017-07-07T01:25:31.840Z,19.7
2017-07-07T01:25:52.139Z,19.8
2017-07-07T01:26:12.411Z,19.8
2017-07-07T01:26:32.742Z,19.8
2017-07-07T01:26:53.008Z,19.8
2017-07-07T01:27:13.362Z,19.8
2017-07-07T01:27:33.741Z,19.8
2017-07-07T01:27:54.058Z,19.9
2017-07-07T01:28:14.337Z,19.9
2017-07-07T01:28:34.641Z,19.8
2017-07-07T01:28:54.909Z,19.8
2017-07-07T01:29:15.193Z,19.8
2017-07-07T01:29:35.533Z,19.9
2017-07-07T01:29:55.824Z,19.9
2017-07-07T01:30:16.111Z,19.9
2017-07-07T01:30:36.377Z,19.8
2017-07-07T01:30:56.657Z,19.9
2017-07-07T01:31:16.963Z,19.8
2017-07-07T01:31:37.263Z,20
2017-07-07T01:31:57.539Z,19.9
2017-07-07T01:32:17.817Z,19.9
2017-07-07T01:32:38.129Z,19.9
2017-07-07T01:32:58.428Z,19.9
2017-07-07T01:33:18.702Z,20
2017-07-07T01:33:38.970Z,19.9
2017-07-07T01:33:59.239Z,20
2017-07-07T01:34:19.519Z,20
2017-07-07T01:34:39.799Z,20
2017-07-07T01:35:00.145Z,20
2017-07-07T01:35:20.496Z,20
2017-07-07T01:35:40.780Z,20
2017-07-07T01:36:01.060Z,20
2017-07-07T01:36:21.362Z,19.9
2017-07-07T01:36:41.633Z,19.9
2017-07-07T01:37:01.992Z,19.9
2017-07-07T01:37:22.308Z,20
2017-07-07T01:37:42.608Z,20
2017-07-07T01:38:02.911Z,20
2017-07-07T01:38:23.185Z,20
2017-07-07T01:38:43.494Z,20
2017-07-07T01:39:03.761Z,20
2017-07-07T01:39:24.053Z,20
2017-07-07T01:39:44.324Z,20
2017-07-07T01:40:04.577Z,19.9
2017-07-07T01:40:24.927Z,19.9
2017-07-07T01:40:45.157Z,20
2017-07-07T01:41:05.411Z,20
2017-07-07T01:41:25.673Z,20.1
2017-07-07T01:41:45.999Z,20
2017-07-07T01:42:06.279Z,19.9
2017-07-07T01:42:26.584Z,20
2017-07-07T01:42:46.874Z,19.9
2017-07-07T01:43:07.144Z,20
2017-07-07T01:43:27.442Z,20
2017-07-07T01:43:47.736Z,20
2017-07-07T01:44:08.037Z,20
2017-07-07T01:44:28.346Z,20
2017-07-07T01:44:48.621Z,19.9
2017-07-07T01:45:08.974Z,19.9
2017-07-07T01:45:29.301Z,20
2017-07-07T01:45:49.567Z,20
2017-07-07T01:46:09.844Z,19.8
2017-07-07T01:46:30.149Z,19.9
2017-07-07T01:46:50.409Z,19.9
2017-07-07T01:47:10.681Z,19.9
2017-07-07T01:47:30.992Z,19.8
2017-07-07T01:47:51.879Z,19.7
2017-07-07T01:48:12.141Z,19.7
2017-07-07T01:48:32.450Z,19.7
2017-07-07T01:48:52.708Z,19.6
2017-07-07T01:49:12.980Z,19.5
2017-07-07T01:49:33.234Z,19.5
2017-07-07T01:49:53.552Z,19.5
2017-07-07T01:50:13.870Z,19.5
2017-07-07T01:50:34.171Z,19.5
2017-07-07T01:50:54.440Z,19.4
2017-07-07T01:51:14.715Z,19.4
2017-07-07T01:51:34.980Z,19.4
2017-07-07T01:51:55.242Z,19.4
2017-07-07T01:52:15.509Z,19.4
2017-07-07T01:52:35.822Z,19.4
2017-07-07T01:52:56.086Z,19.5
2017-07-07T01:53:16.399Z,19.3
2017-07-07T01:53:36.666Z,19.4
2017-07-07T01:53:56.919Z,19.3
2017-07-07T01:54:17.175Z,19.3
2017-07-07T01:54:37.457Z,19.3
2017-07-07T01:54:57.723Z,19.3
2017-07-07T01:55:17.996Z,19.4
2017-07-07T01:55:38.265Z,19.4
2017-07-07T01:55:58.570Z,19.4
2017-07-07T01:56:18.848Z,19.4
2017-07-07T01:56:39.171Z,19.4
2017-07-07T01:56:59.441Z,19.4
2017-07-07T01:57:19.705Z,19.4
2017-07-07T01:57:40.015Z,19.5
2017-07-07T01:58:00.311Z,19.3
2017-07-07T01:58:20.614Z,19.3
2017-07-07T01:58:40.869Z,19.3
2017-07-07T01:59:01.124Z,19.4
2017-07-07T01:59:21.378Z,19.2
2017-07-07T01:59:41.679Z,19.3
2017-07-07T02:00:01.938Z,19.3
2017-07-07T02:00:22.263Z,19.2
2017-07-07T02:00:42.527Z,19.2
2017-07-07T02:01:02.797Z,19.2
2017-07-07T02:01:23.076Z,19.3
2017-07-07T02:01:43.413Z,19.2
2017-07-07T02:02:03.732Z,19.1
2017-07-07T02:02:23.998Z,19.1
2017-07-07T02:02:44.262Z,19.2
2017-07-07T02:03:04.565Z,19.1
2017-07-07T02:03:24.827Z,19.1
2017-07-07T02:03:45.164Z,19.1
2017-07-07T02:04:05.489Z,19.1
2017-07-07T02:04:25.808Z,19.1
2017-07-07T02:04:46.127Z,19.1
2017-07-07T02:05:06.386Z,19.1
2017-07-07T02:05:26.679Z,19
2017-07-07T02:05:46.952Z,19
2017-07-07T02:06:07.230Z,19.1
2017-07-07T02:06:27.549Z,19.2
2017-07-07T02:06:47.824Z,19.1
2017-07-07T02:07:08.080Z,19.1
2017-07-07T02:07:28.409Z,19.1
2017-07-07T02:07:48.733Z,19.1
2017-07-07T02:08:09.018Z,19.1
2017-07-07T02:08:29.288Z,19.2
2017-07-07T02:08:49.592Z,19.2
2017-07-07T02:09:09.903Z,19.1
2017-07-07T02:09:30.211Z,19.1
2017-07-07T02:09:50.473Z,19.1
2017-07-07T02:10:10.743Z,19.1
2017-07-07T02:10:31.018Z,19
2017-07-07T02:10:51.291Z,19
2017-07-07T02:11:11.569Z,19
2017-07-07T02:11:31.883Z,19
2017-07-07T02:11:52.200Z,18.9
2017-07-07T02:12:12.472Z,19
2017-07-07T02:12:32.778Z,18.9
2017-07-07T02:12:53.040Z,19
2017-07-07T02:13:13.311Z,18.9
2017-07-07T02:13:33.580Z,19
2017-07-07T02:13:53.846Z,19
2017-07-07T02:14:14.120Z,19
2017-07-07T02:14:34.394Z,19
2017-07-07T02:14:54.657Z,18.9
2017-07-07T02:15:14.937Z,19
2017-07-07T02:15:35.199Z,19
2017-07-07T02:15:55.444Z,19
2017-07-07T02:16:15.709Z,19
2017-07-07T02:16:36.005Z,19
2017-07-07T02:16:56.886Z,19
2017-07-07T02:17:17.141Z,19.1
2017-07-07T02:17:37.442Z,19
2017-07-07T02:17:57.771Z,19
2017-07-07T02:18:18.045Z,19
2017-07-07T02:18:38.306Z,19
2017-07-07T02:18:58.616Z,19
2017-07-07T02:19:18.915Z,19
2017-07-07T02:19:39.232Z,18.9
2017-07-07T02:19:59.497Z,19
2017-07-07T02:20:19.777Z,19.1
2017-07-07T02:20:40.071Z,19
2017-07-07T02:21:00.403Z,19
2017-07-07T02:21:20.718Z,19
2017-07-07T02:21:41.018Z,18.9
2017-07-07T02:22:01.290Z,19
2017-07-07T02:22:21.596Z,18.9
2017-07-07T02:22:41.937Z,19
2017-07-07T02:23:02.261Z,19
2017-07-07T02:23:22.528Z,19
2017-07-07T02:23:42.804Z,18.9
2017-07-07T02:24:03.086Z,19
2017-07-07T02:24:23.356Z,19
2017-07-07T02:24:43.620Z,19
2017-07-07T02:25:03.903Z,19
2017-07-07T02:25:24.168Z,18.9
2017-07-07T02:25:44.430Z,18.9
2017-07-07T02:26:04.693Z,19
2017-07-07T02:26:24.948Z,19
2017-07-07T02:26:45.200Z,18.9
2017-07-07T02:27:05.474Z,18.9
2017-07-07T02:27:25.750Z,19
2017-07-07T02:27:45.998Z,18.9
2017-07-07T02:28:06.311Z,18.9
2017-07-07T02:28:26.574Z,18.9
2017-07-07T02:28:46.855Z,18.9
2017-07-07T02:29:07.119Z,18.9
2017-07-07T02:29:27.419Z,18.9
2017-07-07T02:29:47.683Z,18.9
2017-07-07T02:30:07.982Z,18.9
2017-07-07T02:30:28.280Z,18.9
2017-07-07T02:30:48.603Z,18.9
2017-07-07T02:31:08.857Z,18.9
2017-07-07T02:31:29.160Z,18.9
2017-07-07T02:31:49.466Z,18.9
2017-07-07T02:32:09.748Z,18.9
2017-07-07T02:32:30.021Z,18.9
2017-07-07T02:32:50.343Z,18.9
2017-07-07T02:33:10.628Z,18.9
2017-07-07T02:33:30.958Z,18.9
2017-07-07T02:33:51.304Z,18.9
2017-07-07T02:34:11.565Z,18.9
2017-07-07T02:34:31.850Z,18.9
2017-07-07T02:34:52.141Z,18.9
2017-07-07T02:35:12.442Z,19
2017-07-07T02:35:32.776Z,18.9
2017-07-07T02:35:53.095Z,18.9
2017-07-07T02:36:13.401Z,18.9
2017-07-07T02:36:33.723Z,18.9
2017-07-07T02:36:53.995Z,18.9
2017-07-07T02:37:14.265Z,18.9
2017-07-07T02:37:34.535Z,18.8
2017-07-07T02:37:54.884Z,18.8
2017-07-07T02:38:15.186Z,18.9
2017-07-07T02:38:35.454Z,18.9
2017-07-07T02:38:55.728Z,18.9
2017-07-07T02:39:16.093Z,18.8
2017-07-07T02:39:36.408Z,18.8
2017-07-07T02:39:56.790Z,18.9
2017-07-07T02:40:17.054Z,18.9
2017-07-07T02:40:37.394Z,18.8
2017-07-07T02:40:57.723Z,18.9
2017-07-07T02:41:18.041Z,18.9
2017-07-07T02:41:38.320Z,18.9
2017-07-07T02:41:58.599Z,18.9
2017-07-07T02:42:18.866Z,18.9
2017-07-07T02:42:39.132Z,18.8
2017-07-07T02:42:59.458Z,18.8
2017-07-07T02:43:19.723Z,18.9
2017-07-07T02:43:39.981Z,18.8
2017-07-07T02:44:00.337Z,18.8
2017-07-07T02:44:20.618Z,18.8
2017-07-07T02:44:40.884Z,18.8
2017-07-07T02:45:01.204Z,18.8
2017-07-07T02:45:21.472Z,18.8
2017-07-07T02:45:41.738Z,18.7
2017-07-07T02:46:02.004Z,18.7
2017-07-07T02:46:22.431Z,18.7
2017-07-07T02:46:42.831Z,18.7
2017-07-07T02:47:03.080Z,18.6
2017-07-07T02:47:23.447Z,18.7
2017-07-07T02:47:43.805Z,18.6
2017-07-07T02:48:04.074Z,18.6
2017-07-07T02:48:24.394Z,18.7
2017-07-07T02:48:44.706Z,18.6
2017-07-07T02:49:05.019Z,18.6
2017-07-07T02:49:25.332Z,18.6
2017-07-07T02:49:45.609Z,18.6
2017-07-07T02:50:06.024Z,18.5
2017-07-07T02:50:26.282Z,18.6
2017-07-07T02:50:46.540Z,18.6
2017-07-07T02:51:06.882Z,18.6
2017-07-07T02:51:27.164Z,18.7
2017-07-07T02:51:47.524Z,18.6
2017-07-07T02:52:07.797Z,18.6
2017-07-07T02:52:28.058Z,18.5
2017-07-07T02:52:48.376Z,18.6
2017-07-07T02:53:08.648Z,18.6
2017-07-07T02:53:28.949Z,18.5
2017-07-07T02:53:49.222Z,18.6
2017-07-07T02:54:09.490Z,18.5
2017-07-07T02:54:29.834Z,18.5
2017-07-07T02:54:50.105Z,18.5
2017-07-07T02:55:10.368Z,18.5
2017-07-07T02:55:30.643Z,18.6
2017-07-07T02:55:50.900Z,18.6
2017-07-07T02:56:11.261Z,18.5
2017-07-07T02:56:31.580Z,18.6
2017-07-07T02:56:51.868Z,18.5
2017-07-07T02:57:12.133Z,18.6
2017-07-07T02:57:32.393Z,18.6
2017-07-07T02:57:52.688Z,18.5
2017-07-07T02:58:12.990Z,18.5
2017-07-07T02:58:33.260Z,18.5
2017-07-07T02:58:53.533Z,18.5
2017-07-07T02:59:13.819Z,18.5
2017-07-07T02:59:34.086Z,18.6
2017-07-07T02:59:54.412Z,18.5
2017-07-07T03:00:14.758Z,18.5
2017-07-07T03:00:35.035Z,18.5
2017-07-07T03:00:55.314Z,18.5
2017-07-07T03:01:15.619Z,18.5
2017-07-07T03:01:35.873Z,18.5
2017-07-07T03:01:56.129Z,18.6
2017-07-07T03:02:16.436Z,18.5
2017-07-07T03:02:36.752Z,18.6
2017-07-07T03:02:57.075Z,18.5
2017-07-07T03:03:17.342Z,18.5
2017-07-07T03:03:37.659Z,18.5
2017-07-07T03:03:57.929Z,18.5
2017-07-07T03:04:18.204Z,18.6
2017-07-07T03:04:38.472Z,18.5
2017-07-07T03:04:58.776Z,18.5
2017-07-07T03:05:19.051Z,18.5
2017-07-07T03:05:39.406Z,18.5
2017-07-07T03:05:59.662Z,18.5
2017-07-07T03:06:20.024Z,18.5
2017-07-07T03:06:40.277Z,18.6
2017-07-07T03:07:00.587Z,18.5
2017-07-07T03:07:20.892Z,18.6
2017-07-07T03:07:41.175Z,18.5
2017-07-07T03:08:01.449Z,18.6
2017-07-07T03:08:21.756Z,18.6
2017-07-07T03:08:42.056Z,18.5
2017-07-07T03:09:02.368Z,18.5
2017-07-07T03:09:22.675Z,18.4
2017-07-07T03:09:42.939Z,18.4
2017-07-07T03:10:03.287Z,18.5
2017-07-07T03:10:23.577Z,18.4
2017-07-07T03:10:43.836Z,18.4
2017-07-07T03:11:04.101Z,18.5
2017-07-07T03:11:24.370Z,18.4
2017-07-07T03:11:44.644Z,18.4
2017-07-07T03:12:04.978Z,18.4
2017-07-07T03:12:25.239Z,18.3
2017-07-07T03:12:45.542Z,18.3
2017-07-07T03:13:05.851Z,18.4
2017-07-07T03:13:26.120Z,18.4
2017-07-07T03:13:46.372Z,18.3
2017-07-07T03:14:06.649Z,18.4
2017-07-07T03:14:26.929Z,18.4
2017-07-07T03:14:47.286Z,18.2
2017-07-07T03:15:07.555Z,18.4
2017-07-07T03:15:27.838Z,18.4
2017-07-07T03:15:48.101Z,18.3
2017-07-07T03:16:08.387Z,18.3
2017-07-07T03:16:28.652Z,18.4
2017-07-07T03:16:48.905Z,18.3
2017-07-07T03:17:09.168Z,18.4
2017-07-07T03:17:29.435Z,18.3
2017-07-07T03:17:49.771Z,18.4
2017-07-07T03:18:10.104Z,18.3
2017-07-07T03:18:30.368Z,18.3
2017-07-07T03:18:50.627Z,18.4
2017-07-07T03:19:10.930Z,18.4
2017-07-07T03:19:31.219Z,18.3
2017-07-07T03:19:51.541Z,18.3
2017-07-07T03:20:11.812Z,18.4
2017-07-07T03:20:32.084Z,18.4
2017-07-07T03:20:52.419Z,18.4
2017-07-07T03:21:12.703Z,18.4
2017-07-07T03:23:41.738Z,18.4
2017-07-07T03:24:02.887Z,18.4
2017-07-07T03:24:23.321Z,18.5
2017-07-07T03:24:43.627Z,18.4
2017-07-07T03:25:03.883Z,18.5
2017-07-07T03:25:24.235Z,18.4
2017-07-07T03:25:44.580Z,18.4
2017-07-07T03:26:04.847Z,18.5
2017-07-07T03:26:25.233Z,18.5
2017-07-07T03:26:45.482Z,18.4
2017-07-07T03:27:05.796Z,18.5
2017-07-07T03:27:26.062Z,18.5
2017-07-07T03:27:46.357Z,18.5
2017-07-07T03:28:06.635Z,18.4
2017-07-07T03:28:27.006Z,18.4
2017-07-07T03:28:47.292Z,18.5
2017-07-07T03:29:07.597Z,18.4
2017-07-07T03:29:27.905Z,18.5
2017-07-07T03:29:48.181Z,18.4
2017-07-07T03:30:08.509Z,18.5
2017-07-07T03:30:28.812Z,18.4
2017-07-07T03:30:49.086Z,18.4
2017-07-07T03:31:09.354Z,18.5
2017-07-07T03:31:29.620Z,18.4
2017-07-07T03:31:49.899Z,18.4
2017-07-07T03:32:10.217Z,18.4
2017-07-07T03:32:30.477Z,18.4
2017-07-07T03:32:50.740Z,18.4
2017-07-07T03:33:11.047Z,18.4
2017-07-07T03:33:31.324Z,18.4
2017-07-07T03:33:51.604Z,18.4
2017-07-07T03:34:11.879Z,18.5
2017-07-07T03:34:32.140Z,18.4
2017-07-07T03:34:52.423Z,18.4
2017-07-07T03:35:12.692Z,18.4
2017-07-07T03:35:32.964Z,18.5
2017-07-07T03:35:53.267Z,18.5
2017-07-07T03:36:13.574Z,18.4
2017-07-07T03:36:33.890Z,18.5
2017-07-07T03:36:54.172Z,18.4
2017-07-07T03:37:14.445Z,18.4
2017-07-07T03:37:34.711Z,18.5
2017-07-07T03:37:55.069Z,18.5
2017-07-07T03:38:15.378Z,18.5
2017-07-07T03:38:35.710Z,18.5
2017-07-07T03:38:55.907Z,18.4
2017-07-07T03:39:16.171Z,18.5
2017-07-07T03:39:36.448Z,18.4
2017-07-07T03:39:56.711Z,18.5
2017-07-07T03:40:16.968Z,18.5
2017-07-07T03:40:37.241Z,18.5
2017-07-07T03:40:57.558Z,18.4
2017-07-07T03:41:17.835Z,18.5
2017-07-07T03:41:38.099Z,18.5
2017-07-07T03:41:58.435Z,18.5
2017-07-07T03:42:18.696Z,18.4
2017-07-07T03:42:38.969Z,18.5
2017-07-07T03:42:59.231Z,18.5
2017-07-07T03:43:19.663Z,18.6
2017-07-07T03:43:39.921Z,18.4
2017-07-07T03:44:00.182Z,18.4
2017-07-07T03:44:20.495Z,18.5
2017-07-07T03:44:40.832Z,18.4
2017-07-07T03:45:01.140Z,18.5
2017-07-07T03:45:21.127Z,18.4
2017-07-07T03:45:41.441Z,18.5
2017-07-07T03:46:01.713Z,18.4
2017-07-07T03:46:22.071Z,18.4
2017-07-07T03:46:42.350Z,18.5
2017-07-07T03:47:02.667Z,18.5
2017-07-07T03:47:22.938Z,18.5
2017-07-07T03:47:43.232Z,18.4
2017-07-07T03:48:03.504Z,18.6
2017-07-07T03:48:23.762Z,18.5
2017-07-07T03:48:44.035Z,18.5
2017-07-07T03:49:04.375Z,18.4
2017-07-07T03:49:24.636Z,18.5
2017-07-07T03:49:44.907Z,18.6
2017-07-07T03:50:05.226Z,18.5
2017-07-07T03:50:25.507Z,18.5
2017-07-07T03:50:45.767Z,18.5
2017-07-07T03:51:06.042Z,18.5
2017-07-07T03:51:26.376Z,18.4
2017-07-07T03:51:46.654Z,18.5
2017-07-07T03:52:06.977Z,18.4
2017-07-07T03:52:27.330Z,18.5
2017-07-07T03:52:47.604Z,18.4
2017-07-07T03:53:07.967Z,18.5
2017-07-07T03:53:28.330Z,18.6
2017-07-07T03:53:48.606Z,18.6
2017-07-07T03:54:08.868Z,18.4
2017-07-07T03:54:29.203Z,18.6
2017-07-07T03:54:49.482Z,18.5
2017-07-07T03:55:09.763Z,18.5
2017-07-07T03:55:30.071Z,18.6
2017-07-07T03:55:50.345Z,18.4
2017-07-07T03:56:10.622Z,18.6
2017-07-07T03:56:30.896Z,18.5
2017-07-07T03:56:51.164Z,18.5
2017-07-07T03:57:11.438Z,18.5
2017-07-07T03:57:32.265Z,18.6
2017-07-07T03:57:52.617Z,18.5
2017-07-07T03:58:12.894Z,18.6
2017-07-07T03:58:33.166Z,18.5
2017-07-07T03:58:53.445Z,18.5
2017-07-07T03:59:13.705Z,18.5
2017-07-07T03:59:34.037Z,18.5
2017-07-07T03:59:54.303Z,18.6
2017-07-07T04:00:14.572Z,18.5
2017-07-07T04:00:34.831Z,18.6
2017-07-07T04:00:55.108Z,18.6
2017-07-07T04:01:15.389Z,18.6
2017-07-07T04:01:35.692Z,18.6
2017-07-07T04:01:56.003Z,18.6
2017-07-07T04:02:16.265Z,18.6
2017-07-07T04:02:36.534Z,18.6
2017-07-07T04:02:56.830Z,18.6
2017-07-07T04:03:17.109Z,18.6
2017-07-07T04:03:37.375Z,18.7
2017-07-07T04:03:57.694Z,18.7
2017-07-07T04:04:18.081Z,18.7
2017-07-07T04:04:38.380Z,18.6
2017-07-07T04:04:58.667Z,18.7
2017-07-07T04:05:18.933Z,18.7
2017-07-07T04:05:39.305Z,18.7
2017-07-07T04:05:59.556Z,18.7
2017-07-07T04:06:19.833Z,18.7
2017-07-07T04:06:40.111Z,18.8
2017-07-07T04:07:00.421Z,18.8
2017-07-07T04:07:20.733Z,18.7
2017-07-07T04:07:41.003Z,18.7
2017-07-07T04:08:01.265Z,18.7
2017-07-07T04:08:21.550Z,18.7
2017-07-07T04:08:41.809Z,18.8
2017-07-07T04:09:02.093Z,18.8
2017-07-07T04:09:22.361Z,18.7
2017-07-07T04:09:42.682Z,18.8
2017-07-07T04:10:02.992Z,18.9
2017-07-07T04:10:23.262Z,18.8
2017-07-07T04:10:43.515Z,18.9
2017-07-07T04:11:03.808Z,18.9
2017-07-07T04:11:24.129Z,18.9
2017-07-07T04:11:44.397Z,18.9
2017-07-07T04:12:04.668Z,18.9
2017-07-07T04:12:24.991Z,18.9
2017-07-07T04:12:45.262Z,18.9
2017-07-07T04:13:05.543Z,18.9
2017-07-07T04:13:25.830Z,18.9
2017-07-07T04:13:46.115Z,18.9
2017-07-07T04:14:06.389Z,19
2017-07-07T04:14:26.659Z,18.9
2017-07-07T04:14:47.011Z,18.9
2017-07-07T04:15:07.322Z,19
2017-07-07T04:15:27.608Z,19
2017-07-07T04:15:47.873Z,19.1
2017-07-07T04:16:08.194Z,19.1
2017-07-07T04:16:28.508Z,19.2
2017-07-07T04:16:48.837Z,19.2
2017-07-07T04:17:09.191Z,19.1
2017-07-07T04:17:29.556Z,19.1
2017-07-07T04:17:49.900Z,19.1
2017-07-07T04:18:10.165Z,19.1
2017-07-07T04:18:30.490Z,19.2
2017-07-07T04:18:50.748Z,19.2
2017-07-07T04:19:11.053Z,19.2
2017-07-07T04:19:31.404Z,19.2
2017-07-07T04:19:51.678Z,19.3
2017-07-07T04:20:11.946Z,19.4
2017-07-07T04:20:32.203Z,19.2
2017-07-07T04:20:52.516Z,19.3
2017-07-07T04:21:12.777Z,19.4
2017-07-07T04:21:33.087Z,19.4
2017-07-07T04:21:53.396Z,19.5
2017-07-07T04:22:13.707Z,19.4
2017-07-07T04:22:33.977Z,19.5
2017-07-07T04:22:54.313Z,19.5
2017-07-07T04:23:14.669Z,19.5
2017-07-07T04:23:34.933Z,19.5
2017-07-07T04:23:55.227Z,19.5
2017-07-07T04:24:15.540Z,19.5
2017-07-07T04:24:35.840Z,19.5
2017-07-07T04:24:55.799Z,19.5
2017-07-07T04:25:16.101Z,19.6
2017-07-07T04:25:36.367Z,19.6
2017-07-07T04:25:56.627Z,19.5
2017-07-07T04:26:16.889Z,19.6
2017-07-07T04:26:37.193Z,19.6
2017-07-07T04:26:57.508Z,19.6
2017-07-07T04:27:17.802Z,19.6
2017-07-07T04:27:38.130Z,19.6
2017-07-07T04:27:58.421Z,19.7
2017-07-07T04:28:18.710Z,19.7
2017-07-07T04:28:38.968Z,19.6
2017-07-07T04:28:59.239Z,19.6
2017-07-07T04:29:19.586Z,19.6
2017-07-07T04:29:39.865Z,19.6
2017-07-07T04:30:00.128Z,19.7
2017-07-07T04:30:20.389Z,19.6
2017-07-07T04:30:40.676Z,19.6
2017-07-07T04:31:00.994Z,19.7
2017-07-07T04:31:21.275Z,19.6
2017-07-07T04:31:41.558Z,19.8
2017-07-07T04:32:01.850Z,19.7
2017-07-07T04:32:22.220Z,19.7
2017-07-07T04:32:42.504Z,19.8
2017-07-07T04:33:02.835Z,19.7
2017-07-07T04:33:23.118Z,19.7
2017-07-07T04:33:43.376Z,19.7
2017-07-07T04:34:03.644Z,19.7
2017-07-07T04:34:23.993Z,19.7